Time;durP1;ratioP1;P1;durP2;ratioP2;P2;SDS_P1;SDS_P2;PMS_P1;PMS_P2;Temp;Humidity;BMP_temperature;BMP_pressure;BME280_temperature;BME280_humidity;BME280_pressure;Samples;Min_cycle;Max_cycle;Signal;HPM_P1;HPM_P2
2022/11/06 00:00:11;;;;;;;919.75;856.38;;;;;;;7.67;69.71;101437.25;697835;28;45256;-64
2022/11/06 00:00:33;;;;;;;922.80;859.33;;;;;;;7.69;69.81;101438.78;695735;28;92070;-64
2022/11/06 00:00:54;;;;;;;941.80;877.75;;;;;;;7.69;69.52;101435.28;698517;28;21534;-64
2022/11/06 00:01:17;;;;;;;931.40;867.75;;;;;;;7.66;69.54;101432.88;695281;28;44373;-64
2022/11/06 00:01:38;;;;;;;922.83;859.40;;;;;;;7.66;69.46;101431.00;694924;28;45263;-64
2022/11/06 00:01:59;;;;;;;930.45;866.75;;;;;;;7.68;69.48;101445.19;695526;28;22361;-64
2022/11/06 00:02:20;;;;;;;935.60;871.72;;;;;;;7.68;69.77;101441.63;693519;28;44385;-64
2022/11/06 00:02:42;;;;;;;923.53;860.10;;;;;;;7.64;69.60;101434.84;693201;28;21475;-64
2022/11/06 00:03:04;;;;;;;925.50;861.92;;;;;;;7.66;69.48;101436.38;692807;28;23418;-64
2022/11/06 00:03:25;;;;;;;933.10;869.38;;;;;;;7.66;69.73;101440.94;692289;28;44146;-64
2022/11/06 00:03:47;;;;;;;936.88;872.92;;;;;;;7.65;69.90;101437.41;692651;28;22554;-64
2022/11/06 00:04:08;;;;;;;925.08;861.65;;;;;;;7.66;69.69;101436.38;695400;28;70264;-64
2022/11/06 00:04:30;;;;;;;921.95;858.65;;;;;;;7.67;69.63;101448.00;698442;28;22414;-64
2022/11/06 00:04:52;;;;;;;920.83;857.38;;;;;;;7.66;69.73;101439.06;696815;28;21431;-64
2022/11/06 00:06:48;;;;;;;919.42;856.13;;;;;;;7.70;70.06;101443.19;691886;28;137660;-64
2022/11/06 00:07:09;;;;;;;903.15;840.15;;;;;;;7.71;69.62;101438.66;688441;28;138222;-63
2022/11/06 00:07:30;;;;;;;907.67;844.78;;;;;;;7.71;69.60;101433.28;694977;28;887;-64
2022/11/06 00:07:51;;;;;;;921.45;858.10;;;;;;;7.72;69.70;101441.19;695480;28;22238;-64
2022/11/06 00:08:13;;;;;;;923.72;860.25;;;;;;;7.71;69.32;101438.66;695602;28;22411;-64
2022/11/06 00:08:39;;;;;;;921.17;857.83;;;;;;;7.71;69.65;101438.66;694602;28;45263;-64
2022/11/06 00:09:03;;;;;;;906.10;843.10;;;;;;;7.70;69.46;101437.81;691691;28;138848;-64
2022/11/06 00:09:24;;;;;;;931.42;867.78;;;;;;;7.70;69.50;101439.66;691020;28;70062;-64
2022/11/06 00:09:47;;;;;;;922.47;859.17;;;;;;;7.70;69.60;101437.81;693137;28;22462;-64
2022/11/06 00:10:09;;;;;;;921.30;857.95;;;;;;;7.66;69.30;101432.88;691409;28;69269;-64
2022/11/06 00:10:30;;;;;;;902.47;839.83;;;;;;;7.69;69.42;101435.28;693065;28;23228;-64
2022/11/06 00:10:51;;;;;;;918.03;854.90;;;;;;;7.69;69.46;101433.41;694019;28;44022;-65
2022/11/06 00:11:16;;;;;;;904.65;841.95;;;;;;;7.69;69.25;101433.41;695756;28;21536;-64
2022/11/06 00:11:38;;;;;;;901.22;838.55;;;;;;;7.68;69.52;101437.13;692405;28;115026;-64
2022/11/06 00:11:59;;;;;;;915.33;852.13;;;;;;;7.67;69.34;101440.78;694787;28;44452;-64
2022/11/06 00:12:20;;;;;;;915.63;852.42;;;;;;;7.66;69.43;101436.38;695201;28;22239;-64
2022/11/06 00:12:49;;;;;;;923.22;859.75;;;;;;;7.67;69.33;101437.25;694311;28;61785;-64
2022/11/06 00:13:10;;;;;;;891.38;828.88;;;;;;;7.67;69.43;101435.41;694000;28;68373;-64
2022/11/06 00:13:34;;;;;;;904.13;841.22;;;;;;;7.66;69.28;101436.38;695530;28;22382;-65
2022/11/06 00:13:56;;;;;;;911.10;847.90;;;;;;;7.67;69.21;101438.09;692789;28;92116;-64
2022/11/06 00:14:17;;;;;;;912.15;849.05;;;;;;;7.63;69.40;101425.91;694688;28;46316;-64
2022/11/06 00:14:39;;;;;;;898.10;835.45;;;;;;;7.68;69.48;101436.25;695501;28;23405;-64
2022/11/06 00:15:00;;;;;;;908.40;845.33;;;;;;;7.67;69.59;101430.03;694877;28;23466;-65
2022/11/06 00:15:22;;;;;;;908.53;845.35;;;;;;;7.68;69.59;101437.13;694013;28;1560;-64
2022/11/06 00:15:44;;;;;;;915.63;852.28;;;;;;;7.68;69.53;101441.63;692670;28;69800;-64
2022/11/06 00:16:07;;;;;;;913.38;850.10;;;;;;;7.68;69.46;101438.94;694850;28;23596;-64
2022/11/06 00:16:29;;;;;;;912.00;848.85;;;;;;;7.67;69.37;101440.78;693910;28;67472;-64
2022/11/06 00:16:51;;;;;;;918.17;855.08;;;;;;;7.64;69.45;101430.31;694772;28;44267;-64
2022/11/06 00:17:12;;;;;;;935.70;871.72;;;;;;;7.65;69.57;101434.72;693898;28;44375;-64
2022/11/06 00:17:33;;;;;;;907.17;844.28;;;;;;;7.63;69.50;101438.53;695278;28;23462;-64
2022/11/06 00:17:55;;;;;;;898.50;835.88;;;;;;;7.63;69.73;101441.22;693122;28;21655;-64
2022/11/06 00:18:16;;;;;;;906.42;843.60;;;;;;;7.63;69.64;101435.84;691269;28;69461;-64
2022/11/06 00:18:39;;;;;;;911.13;847.95;;;;;;;7.63;69.67;101438.53;692413;28;21525;-64
2022/11/06 00:19:04;;;;;;;909.13;846.03;;;;;;;7.61;69.79;101429.75;692944;28;91991;-64
2022/11/06 00:19:26;;;;;;;907.42;844.45;;;;;;;7.63;69.47;101435.84;693307;28;92294;-64
2022/11/06 00:19:47;;;;;;;914.95;851.67;;;;;;;7.62;69.73;101435.00;695395;28;23332;-64
2022/11/06 00:20:09;;;;;;;903.00;840.15;;;;;;;7.62;69.52;101434.13;693602;28;45276;-64
2022/11/06 00:20:31;;;;;;;916.88;853.63;;;;;;;7.61;69.41;101432.44;692893;28;24400;-64
2022/11/06 00:20:52;;;;;;;920.85;857.53;;;;;;;7.63;69.73;101431.28;692219;28;46576;-64
2022/11/06 00:21:14;;;;;;;902.22;839.53;;;;;;;7.61;69.80;101430.59;693698;28;4107;-64
2022/11/06 00:21:36;;;;;;;922.03;858.65;;;;;;;7.62;69.60;101434.13;691429;28;46384;-64
2022/11/06 00:21:58;;;;;;;943.00;878.65;;;;;;;7.63;70.00;101433.16;691495;28;45302;-64
2022/11/06 00:22:20;;;;;;;958.20;893.35;;;;;;;7.65;70.06;101440.09;692093;28;46234;-64
2022/11/06 00:22:41;;;;;;;942.33;878.22;;;;;;;7.64;69.68;101434.84;692824;28;46276;-64
2022/11/06 00:23:03;;;;;;;946.75;882.55;;;;;;;7.64;69.80;101438.38;692064;28;45221;-64
2022/11/06 00:23:24;;;;;;;951.55;887.33;;;;;;;7.65;69.58;101433.84;692863;28;23279;-64
2022/11/06 00:23:47;;;;;;;935.53;871.75;;;;;;;7.63;69.72;101431.28;692362;28;21384;-64
2022/11/06 00:24:09;;;;;;;924.22;860.80;;;;;;;7.64;69.71;101433.00;692158;28;46327;-63
2022/11/06 00:24:31;;;;;;;911.28;848.20;;;;;;;7.64;69.53;101441.06;691509;28;70405;-62
2022/11/06 00:24:53;;;;;;;906.13;843.17;;;;;;;7.66;69.42;101435.56;695260;28;22318;-63
2022/11/06 00:25:15;;;;;;;929.63;865.95;;;;;;;7.64;69.53;101443.75;695032;28;44053;-65
2022/11/06 00:25:39;;;;;;;928.13;864.53;;;;;;;7.65;69.53;101437.41;696781;28;69468;-63
2022/11/06 00:26:04;;;;;;;906.20;843.25;;;;;;;7.65;69.83;101437.41;696069;28;92289;-63
2022/11/06 00:26:28;;;;;;;907.30;844.28;;;;;;;7.63;69.81;101439.34;695379;28;115079;-63
2022/11/06 00:26:49;;;;;;;907.15;844.20;;;;;;;7.64;69.67;101442.91;695355;28;92280;-63
2022/11/06 00:27:12;;;;;;;911.05;847.78;;;;;;;7.64;69.60;101437.53;697019;28;23470;-63
2022/11/06 00:27:35;;;;;;;910.67;847.63;;;;;;;7.64;69.67;101443.75;696687;28;70386;-63
2022/11/06 00:27:57;;;;;;;907.40;844.40;;;;;;;7.64;69.62;101438.38;697011;28;45309;-63
2022/11/06 00:28:18;;;;;;;932.05;868.30;;;;;;;7.64;69.58;101442.91;697151;28;45198;-63
2022/11/06 00:28:39;;;;;;;919.63;856.30;;;;;;;7.63;69.64;101442.03;694723;28;45177;-63
2022/11/06 00:29:02;;;;;;;924.88;861.35;;;;;;;7.62;69.57;101436.81;695633;28;22412;-63
2022/11/06 00:29:24;;;;;;;917.33;853.95;;;;;;;7.63;69.53;101442.03;694242;28;69432;-66
2022/11/06 00:29:46;;;;;;;903.83;841.03;;;;;;;7.63;69.50;101441.22;693943;28;46656;-63
2022/11/06 00:30:10;;;;;;;923.60;860.33;;;;;;;7.62;69.57;101434.13;695662;28;23546;-66
2022/11/06 00:30:31;;;;;;;934.95;871.15;;;;;;;7.62;69.54;101442.19;693360;28;92162;-65
2022/11/06 00:31:01;;;;;;;937.50;873.58;;;;;;;7.58;69.36;101434.41;695309;28;21550;-65
2022/11/06 00:31:23;;;;;;;928.10;864.50;;;;;;;7.58;69.30;101438.94;691694;28;138279;-65
2022/11/06 00:31:44;;;;;;;954.22;889.30;;;;;;;7.56;69.44;101441.75;694590;28;46320;-65
2022/11/06 00:32:05;;;;;;;938.60;874.47;;;;;;;7.56;69.28;101432.88;695453;28;21527;-65
2022/11/06 00:32:28;;;;;;;935.28;871.53;;;;;;;7.54;69.46;101427.63;695415;28;22545;-63
2022/11/06 00:32:49;;;;;;;947.17;883.03;;;;;;;7.52;69.33;101426.94;694441;28;44241;-63
2022/11/06 00:33:10;;;;;;;944.30;880.20;;;;;;;7.51;69.60;101435.97;694954;28;22391;-65
2022/11/06 00:33:32;;;;;;;951.47;887.15;;;;;;;7.52;69.23;101436.81;695359;28;22409;-65
2022/11/06 00:33:56;;;;;;;938.35;874.38;;;;;;;7.51;69.40;101430.59;694961;28;44384;-64
2022/11/06 00:34:21;;;;;;;917.38;854.20;;;;;;;7.51;69.44;101422.53;692503;28;113539;-64
2022/11/06 00:34:42;;;;;;;932.72;868.88;;;;;;;7.50;69.47;101431.56;693275;28;92668;-65
2022/11/06 00:35:04;;;;;;;924.70;861.15;;;;;;;7.51;69.58;101433.28;696434;28;44378;-65
2022/11/06 00:35:26;;;;;;;934.75;870.97;;;;;;;7.47;69.80;101429.16;697632;28;46303;-64
2022/11/06 00:35:48;;;;;;;938.15;874.28;;;;;;;7.49;69.67;101434.41;698438;28;22151;-65
2022/11/06 00:36:11;;;;;;;943.58;879.47;;;;;;;7.48;69.55;101432.72;697647;28;46089;-65
2022/11/06 00:36:32;;;;;;;936.83;873.05;;;;;;;7.47;69.66;101437.22;696829;28;69301;-65
2022/11/06 00:36:54;;;;;;;940.72;876.50;;;;;;;7.46;69.82;101432.00;697307;28;45261;-65
2022/11/06 00:37:17;;;;;;;921.15;857.72;;;;;;;7.46;69.81;101427.50;697495;28;46316;-65
2022/11/06 00:37:38;;;;;;;935.90;872.08;;;;;;;7.46;69.63;101435.56;697633;28;47349;-65
2022/11/06 00:38:00;;;;;;;950.25;885.88;;;;;;;7.44;69.74;101428.59;694885;28;46310;-65
2022/11/06 00:38:21;;;;;;;934.63;870.72;;;;;;;7.46;69.70;101437.38;695606;28;21561;-63
2022/11/06 00:39:09;;;;;;;931.95;868.15;;;;;;;7.47;69.64;101433.69;691000;28;157200;-66
2022/11/06 00:39:30;;;;;;;934.42;870.63;;;;;;;7.46;69.78;101430.16;694183;28;67259;-65
2022/11/06 00:39:51;;;;;;;925.67;862.20;;;;;;;7.47;69.82;101428.31;695611;28;21354;-65
2022/11/06 00:40:12;;;;;;;935.60;871.75;;;;;;;7.48;70.03;101438.94;695652;28;21517;-66
2022/11/06 00:40:34;;;;;;;929.47;865.80;;;;;;;7.49;69.87;101434.41;695656;28;22415;-65
2022/11/06 00:40:56;;;;;;;916.60;853.38;;;;;;;7.48;70.21;101430.88;694116;28;67149;-64
2022/11/06 00:41:17;;;;;;;931.30;867.67;;;;;;;7.50;70.13;101433.41;695779;28;22404;-65
2022/11/06 00:41:38;;;;;;;944.47;880.35;;;;;;;7.50;70.14;101430.72;695660;28;22400;-65
2022/11/06 00:42:00;;;;;;;919.50;856.08;;;;;;;7.50;70.12;101434.25;695716;28;23440;-65
2022/11/06 00:42:21;;;;;;;918.22;855.00;;;;;;;7.50;70.00;101433.41;694906;28;46329;-65
2022/11/06 00:42:42;;;;;;;923.35;859.92;;;;;;;7.50;69.87;101434.25;695377;28;22410;-65
2022/11/06 00:43:03;;;;;;;938.97;875.08;;;;;;;7.47;69.88;101429.16;694920;28;45249;-65
2022/11/06 00:43:26;;;;;;;934.95;871.30;;;;;;;7.49;69.89;101431.72;695783;28;23267;-65
2022/11/06 00:43:48;;;;;;;919.40;856.17;;;;;;;7.50;70.02;101436.94;694477;28;46230;-65
2022/11/06 00:44:09;;;;;;;929.88;866.20;;;;;;;7.49;69.32;101434.41;693819;28;46208;-65
2022/11/06 00:44:30;;;;;;;936.15;872.15;;;;;;;7.47;70.01;101431.84;692959;28;21552;-65
2022/11/06 00:44:52;;;;;;;925.38;861.65;;;;;;;7.47;69.70;101433.69;692651;28;20635;-65
2022/11/06 00:45:14;;;;;;;926.20;862.70;;;;;;;7.46;69.87;101435.56;692025;28;44116;-65
2022/11/06 00:45:35;;;;;;;924.20;860.72;;;;;;;7.45;70.12;101433.00;692755;28;22365;-63
2022/11/06 00:46:01;;;;;;;948.15;883.85;;;;;;;7.45;69.76;101430.31;694799;28;22413;-63
2022/11/06 00:46:22;;;;;;;925.33;861.78;;;;;;;7.46;69.90;101432.88;691532;28;138263;-64
2022/11/06 00:46:43;;;;;;;938.75;874.78;;;;;;;7.45;70.17;101423.09;694568;28;46295;-63
2022/11/06 00:47:04;;;;;;;946.20;881.60;;;;;;;7.47;70.18;101431.84;694977;28;21473;-63
2022/11/06 00:47:26;;;;;;;942.55;878.35;;;;;;;7.46;69.91;101422.09;695605;28;21134;-63
2022/11/06 00:47:48;;;;;;;934.10;870.28;;;;;;;7.45;70.14;101431.16;694053;28;45264;-63
2022/11/06 00:48:09;;;;;;;919.40;856.13;;;;;;;7.46;69.88;101423.94;692923;28;22467;-63
2022/11/06 00:48:30;;;;;;;940.15;876.13;;;;;;;7.46;70.03;101424.78;692760;28;46357;-63
2022/11/06 00:48:52;;;;;;;924.25;860.70;;;;;;;7.45;69.68;101431.16;693579;28;21326;-63
2022/11/06 00:49:13;;;;;;;930.17;866.50;;;;;;;7.46;69.98;101426.63;692145;28;46275;-63
2022/11/06 00:49:36;;;;;;;924.95;861.40;;;;;;;7.43;69.84;101425.06;692885;28;21302;-64
2022/11/06 00:49:57;;;;;;;936.08;872.17;;;;;;;7.45;69.94;101428.47;692684;28;69070;-64
2022/11/06 00:50:19;;;;;;;936.17;872.47;;;;;;;7.47;69.67;101420.25;695369;28;21577;-63
2022/11/06 00:50:40;;;;;;;932.65;868.85;;;;;;;7.47;69.94;101428.31;694070;28;46393;-64
2022/11/06 00:51:02;;;;;;;923.80;860.38;;;;;;;7.44;70.02;101421.38;694703;28;46350;-63
2022/11/06 00:51:26;;;;;;;933.63;869.92;;;;;;;7.47;69.90;101429.16;695527;28;23423;-64
2022/11/06 00:51:48;;;;;;;930.03;866.33;;;;;;;7.47;69.95;101433.69;692886;28;90390;-64
2022/11/06 00:52:09;;;;;;;944.75;880.58;;;;;;;7.48;70.04;101421.97;693968;28;69425;-64
2022/11/06 00:52:30;;;;;;;927.55;863.95;;;;;;;7.48;69.69;101427.34;695759;28;23468;-63
2022/11/06 00:52:53;;;;;;;933.83;869.95;;;;;;;7.49;69.59;101426.34;695159;28;23482;-64
2022/11/06 00:53:14;;;;;;;943.88;879.75;;;;;;;7.47;69.60;101428.31;694968;28;45287;-64
2022/11/06 00:53:36;;;;;;;931.75;868.05;;;;;;;7.47;69.89;101431.84;694501;28;46417;-62
2022/11/06 00:54:00;;;;;;;910.85;847.67;;;;;;;7.47;69.84;101425.63;693174;28;23463;-64
2022/11/06 00:54:21;;;;;;;909.95;846.90;;;;;;;7.46;69.86;101429.31;689811;28;113590;-64
2022/11/06 00:54:42;;;;;;;929.95;866.22;;;;;;;7.45;69.70;101428.47;692924;28;22407;-64
2022/11/06 00:55:04;;;;;;;924.42;860.97;;;;;;;7.45;69.87;101428.47;693045;28;23494;-64
2022/11/06 00:55:26;;;;;;;918.90;855.67;;;;;;;7.44;69.83;101426.75;692293;28;45225;-64
2022/11/06 00:55:47;;;;;;;919.15;855.83;;;;;;;7.44;69.80;101428.59;694888;28;46317;-64
2022/11/06 00:56:10;;;;;;;909.88;846.83;;;;;;;7.42;69.68;101428.75;694613;28;23269;-62
2022/11/06 00:56:32;;;;;;;920.88;857.67;;;;;;;7.44;69.69;101423.22;691339;28;64426;-64
2022/11/06 00:56:54;;;;;;;896.88;834.33;;;;;;;7.44;70.03;101428.59;693179;28;46321;-64
2022/11/06 00:57:15;;;;;;;905.58;842.53;;;;;;;7.43;69.90;101427.75;694185;28;45322;-64
2022/11/06 00:57:36;;;;;;;920.80;857.40;;;;;;;7.45;69.72;101431.16;695414;28;23919;-64
2022/11/06 00:57:57;;;;;;;910.72;847.63;;;;;;;7.45;69.72;101433.00;695361;28;23473;-64
2022/11/06 00:58:20;;;;;;;913.00;849.88;;;;;;;7.45;69.84;101427.63;695535;28;22393;-64
2022/11/06 00:58:41;;;;;;;922.47;859.08;;;;;;;7.44;69.48;101425.91;693371;28;67561;-64
2022/11/06 00:59:04;;;;;;;902.72;839.83;;;;;;;7.44;69.46;101434.81;691807;28;46311;-64
2022/11/06 00:59:25;;;;;;;912.47;849.30;;;;;;;7.45;69.72;101430.31;691951;28;46349;-64
2022/11/06 00:59:47;;;;;;;914.35;851.22;;;;;;;7.44;69.51;101432.13;692091;28;46864;-64
2022/11/06 01:00:10;;;;;;;888.75;826.35;;;;;;;7.44;69.48;101431.28;692074;28;45303;-63
2022/11/06 01:00:31;;;;;;;883.67;821.53;;;;;;;7.43;69.67;101426.91;694488;28;46438;-64
2022/11/06 01:00:52;;;;;;;886.45;824.13;;;;;;;7.43;69.31;101435.81;694889;28;46728;-64
2022/11/06 01:01:16;;;;;;;888.90;826.55;;;;;;;7.39;69.34;101418.28;695529;28;23464;-64
2022/11/06 01:01:41;;;;;;;890.03;827.42;;;;;;;7.42;69.76;101434.13;695116;28;36430;-64
2022/11/06 01:02:03;;;;;;;910.53;847.38;;;;;;;7.42;69.51;101431.44;693112;28;90353;-64
2022/11/06 01:02:24;;;;;;;922.20;858.72;;;;;;;7.42;69.69;101433.28;695685;28;22164;-64
2022/11/06 01:02:46;;;;;;;935.13;871.17;;;;;;;7.40;69.50;101431.56;695620;28;22403;-64
2022/11/06 01:03:07;;;;;;;932.22;868.45;;;;;;;7.40;69.30;101428.03;693963;28;69456;-64
2022/11/06 01:03:29;;;;;;;914.17;851.03;;;;;;;7.40;69.69;101426.19;695700;28;23473;-64
2022/11/06 01:03:52;;;;;;;895.22;832.70;;;;;;;7.38;69.52;101425.50;695210;28;22356;-64
2022/11/06 01:04:17;;;;;;;887.22;824.95;;;;;;;7.38;69.45;101422.81;694046;28;69277;-64
2022/11/06 01:04:40;;;;;;;906.65;843.65;;;;;;;7.42;69.40;101427.91;691548;28;137706;-64
2022/11/06 01:05:01;;;;;;;911.17;848.10;;;;;;;7.41;69.47;101432.41;694141;28;69441;-64
2022/11/06 01:05:22;;;;;;;898.90;836.25;;;;;;;7.40;69.55;101428.03;695417;28;22374;-64
2022/11/06 01:05:44;;;;;;;913.65;850.40;;;;;;;7.40;69.56;101428.03;695681;28;23420;-64
2022/11/06 01:06:09;;;;;;;894.08;831.53;;;;;;;7.39;69.60;101429.03;694851;28;45251;-65
2022/11/06 01:06:32;;;;;;;912.65;849.63;;;;;;;7.39;69.42;101434.41;692493;28;113733;-64
2022/11/06 01:06:55;;;;;;;917.58;854.30;;;;;;;7.40;69.61;101431.56;693639;28;67110;-64
2022/11/06 01:07:17;;;;;;;912.05;848.72;;;;;;;7.42;69.91;101427.91;693803;28;67494;-64
2022/11/06 01:07:39;;;;;;;903.60;840.70;;;;;;;7.42;69.53;101430.59;694800;28;44499;-64
2022/11/06 01:08:00;;;;;;;907.28;844.38;;;;;;;7.40;69.86;101428.88;694760;28;44387;-64
2022/11/06 01:08:21;;;;;;;901.15;838.40;;;;;;;7.40;69.58;101428.03;695320;28;21430;-64
2022/11/06 01:08:44;;;;;;;912.25;849.13;;;;;;;7.40;69.66;101430.72;695196;28;21519;-63
2022/11/06 01:09:06;;;;;;;908.13;845.10;;;;;;;7.38;69.89;101430.00;693880;28;70240;-64
2022/11/06 01:09:27;;;;;;;915.35;852.20;;;;;;;7.40;69.80;101425.34;694806;28;46482;-64
2022/11/06 01:09:48;;;;;;;908.08;845.10;;;;;;;7.40;69.67;101431.56;694397;28;45191;-64
2022/11/06 01:10:10;;;;;;;920.20;856.92;;;;;;;7.39;69.86;101424.47;695469;28;22404;-64
2022/11/06 01:10:31;;;;;;;925.67;862.13;;;;;;;7.39;69.45;101424.47;694808;28;46325;-64
2022/11/06 01:10:53;;;;;;;922.25;858.72;;;;;;;7.38;69.48;101425.50;695676;28;22378;-64
2022/11/06 01:11:15;;;;;;;922.67;859.25;;;;;;;7.37;69.38;101431.84;695643;28;22413;-64
2022/11/06 01:11:39;;;;;;;933.05;869.22;;;;;;;7.33;69.45;101427.72;693818;28;69401;-64
2022/11/06 01:12:01;;;;;;;939.20;874.03;;;;;;;7.37;69.75;101433.69;689142;28;93275;-64
2022/11/06 01:12:22;;;;;;;939.08;873.97;;;;;;;7.35;69.42;101431.16;694331;28;23484;-64
2022/11/06 01:12:43;;;;;;;915.95;852.67;;;;;;;7.34;69.82;101423.22;692766;28;21231;-64
2022/11/06 01:13:05;;;;;;;902.90;840.05;;;;;;;7.36;69.55;101431.97;691909;28;46323;-64
2022/11/06 01:13:26;;;;;;;889.15;826.72;;;;;;;7.34;69.44;101431.28;691890;28;46321;-64
2022/11/06 01:13:48;;;;;;;879.97;817.85;;;;;;;7.35;69.55;101424.91;692036;28;22393;-64
2022/11/06 01:14:11;;;;;;;897.80;835.10;;;;;;;7.36;69.63;101434.66;691977;28;44231;-65
2022/11/06 01:14:33;;;;;;;896.97;834.20;;;;;;;7.34;69.43;101432.13;693560;28;67334;-64
2022/11/06 01:14:54;;;;;;;894.88;832.22;;;;;;;7.35;69.69;101433.84;693528;28;46504;-64
2022/11/06 01:15:15;;;;;;;888.63;826.15;;;;;;;7.35;69.54;101427.59;695272;28;21572;-64
2022/11/06 01:15:37;;;;;;;912.17;849.15;;;;;;;7.33;69.45;101427.72;695214;28;21327;-63
2022/11/06 01:15:58;;;;;;;899.42;836.80;;;;;;;7.32;69.71;101434.13;695020;28;23267;-64
2022/11/06 01:16:20;;;;;;;907.42;844.55;;;;;;;7.31;69.58;101429.72;694764;28;23338;-64
2022/11/06 01:16:42;;;;;;;908.33;845.33;;;;;;;7.33;69.81;101429.56;694170;28;45184;-64
2022/11/06 01:17:03;;;;;;;889.08;826.38;;;;;;;7.32;69.96;101434.13;694815;28;22390;-63
2022/11/06 01:17:24;;;;;;;895.28;832.45;;;;;;;7.33;69.62;101432.25;695370;28;21528;-65
2022/11/06 01:17:46;;;;;;;914.60;851.47;;;;;;;7.33;69.58;101430.41;695162;28;22427;-64
2022/11/06 01:18:07;;;;;;;917.45;854.20;;;;;;;7.33;69.97;101432.25;694726;28;46335;-63
2022/11/06 01:18:28;;;;;;;926.70;863.13;;;;;;;7.33;69.92;101429.56;695610;28;23268;-63
2022/11/06 01:18:50;;;;;;;919.90;856.47;;;;;;;7.33;69.55;101427.72;694126;28;44395;-64
2022/11/06 01:19:13;;;;;;;910.85;847.70;;;;;;;7.34;69.59;101425.91;695635;28;22431;-61
2022/11/06 01:19:35;;;;;;;911.95;848.85;;;;;;;7.30;69.83;101424.47;692753;28;92260;-63
2022/11/06 01:19:57;;;;;;;926.30;862.70;;;;;;;7.32;69.93;101430.56;695179;28;22398;-65
2022/11/06 01:20:18;;;;;;;912.08;848.88;;;;;;;7.31;69.78;101426.19;693972;28;69206;-64
2022/11/06 01:20:40;;;;;;;910.95;847.88;;;;;;;7.30;69.68;101430.69;695581;28;22412;-63
2022/11/06 01:21:05;;;;;;;920.63;857.28;;;;;;;7.28;70.00;101429.16;694837;28;44355;-63
2022/11/06 01:21:28;;;;;;;904.35;841.42;;;;;;;7.31;69.79;101426.19;692844;28;114996;-64
2022/11/06 01:21:51;;;;;;;908.45;845.38;;;;;;;7.31;69.94;101428.88;696718;28;70247;-63
2022/11/06 01:22:13;;;;;;;927.03;863.35;;;;;;;7.32;70.00;101428.72;696643;28;68344;-64
2022/11/06 01:22:34;;;;;;;897.75;835.13;;;;;;;7.32;70.07;101428.72;697631;28;44377;-64
2022/11/06 01:22:55;;;;;;;904.40;841.60;;;;;;;7.28;70.07;101413.03;698424;28;21569;-63
2022/11/06 01:23:17;;;;;;;904.80;841.97;;;;;;;7.33;70.22;101427.72;695631;28;23448;-64
2022/11/06 01:23:38;;;;;;;917.10;853.80;;;;;;;7.33;69.94;101422.34;693984;28;46182;-65
2022/11/06 01:24:02;;;;;;;917.75;854.30;;;;;;;7.35;69.91;101427.59;695251;28;22236;-63
2022/11/06 01:24:25;;;;;;;905.95;842.90;;;;;;;7.34;70.04;101420.53;693011;28;92200;-62
2022/11/06 01:24:46;;;;;;;903.25;840.38;;;;;;;7.35;69.86;101427.59;693693;28;68224;-65
2022/11/06 01:25:08;;;;;;;906.67;843.80;;;;;;;7.34;70.03;101425.91;695411;28;22404;-64
2022/11/06 01:25:30;;;;;;;897.60;835.00;;;;;;;7.36;69.85;101418.56;694621;28;45204;-63
2022/11/06 01:25:58;;;;;;;885.78;823.47;;;;;;;7.37;69.85;101423.78;694801;28;45208;-63
2022/11/06 01:26:19;;;;;;;903.80;840.92;;;;;;;7.34;70.18;101415.16;691400;28;137776;-63
2022/11/06 01:26:40;;;;;;;905.72;842.72;;;;;;;7.40;70.21;101422.66;695578;28;22557;-65
2022/11/06 01:27:02;;;;;;;918.15;854.63;;;;;;;7.41;69.91;101424.34;694268;28;46339;-63
2022/11/06 01:27:23;;;;;;;917.15;853.65;;;;;;;7.42;69.94;101419.84;694761;28;45272;-63
2022/11/06 01:27:45;;;;;;;900.53;837.83;;;;;;;7.41;70.01;101427.03;695654;28;22406;-63
2022/11/06 01:28:09;;;;;;;899.63;836.90;;;;;;;7.39;69.75;101413.72;692206;28;36335;-63
2022/11/06 01:28:32;;;;;;;903.83;841.03;;;;;;;7.39;69.89;101423.66;692919;28;22393;-64
2022/11/06 01:28:54;;;;;;;909.40;846.38;;;;;;;7.39;69.71;101415.59;690411;28;89009;-64
2022/11/06 01:29:16;;;;;;;914.72;851.65;;;;;;;7.39;69.93;101412.91;692707;28;22387;-64
2022/11/06 01:29:37;;;;;;;919.58;856.20;;;;;;;7.38;69.63;101416.56;693698;28;69464;-64
2022/11/06 01:30:00;;;;;;;911.22;848.13;;;;;;;7.37;69.86;101413.03;698192;28;23423;-63
2022/11/06 01:30:21;;;;;;;889.85;827.50;;;;;;;7.37;69.69;101415.72;696423;28;69456;-64
2022/11/06 01:30:43;;;;;;;909.78;846.70;;;;;;;7.36;69.87;101408.63;697900;28;22304;-63
2022/11/06 01:31:05;;;;;;;917.58;854.28;;;;;;;7.36;69.70;101402.44;698208;28;22387;-64
2022/11/06 01:31:28;;;;;;;919.35;856.00;;;;;;;7.38;69.99;101404.00;694557;28;46532;-64
2022/11/06 01:31:50;;;;;;;911.97;848.78;;;;;;;7.39;69.99;101408.34;693796;28;67478;-64
2022/11/06 01:32:12;;;;;;;938.53;874.45;;;;;;;7.40;69.76;101409.22;694797;28;45245;-63
2022/11/06 01:32:33;;;;;;;906.17;843.25;;;;;;;7.40;69.73;101407.38;694806;28;45367;-63
2022/11/06 01:32:54;;;;;;;910.42;847.33;;;;;;;7.39;69.75;101410.22;695369;28;22349;-64
2022/11/06 01:33:16;;;;;;;920.63;857.30;;;;;;;7.42;70.13;101412.63;695641;28;22396;-64
2022/11/06 01:33:38;;;;;;;910.97;847.85;;;;;;;7.43;69.74;101411.63;693545;28;67491;-63
2022/11/06 01:34:00;;;;;;;923.65;860.17;;;;;;;7.44;70.00;101412.47;695651;28;22404;-63
2022/11/06 01:34:22;;;;;;;914.45;851.25;;;;;;;7.44;69.83;101405.25;694943;28;46400;-64
2022/11/06 01:34:45;;;;;;;893.97;831.45;;;;;;;7.44;69.66;101407.09;693962;28;69353;-63
2022/11/06 01:35:08;;;;;;;906.97;844.03;;;;;;;7.46;69.71;101414.03;693919;28;69479;-64
2022/11/06 01:35:29;;;;;;;909.30;846.28;;;;;;;7.45;69.89;101406.97;694864;28;46338;-63
2022/11/06 01:35:50;;;;;;;913.80;850.70;;;;;;;7.45;69.90;101411.50;695588;28;22381;-64
2022/11/06 01:36:14;;;;;;;918.08;854.88;;;;;;;7.45;69.89;101404.28;694596;28;46363;-64
2022/11/06 01:36:38;;;;;;;913.00;850.00;;;;;;;7.44;69.64;101407.94;692993;28;92316;-64
2022/11/06 01:36:59;;;;;;;923.33;859.80;;;;;;;7.44;69.52;101410.63;693530;28;69266;-63
2022/11/06 01:37:23;;;;;;;931.63;867.67;;;;;;;7.45;69.39;101411.50;695729;28;15052;-64
2022/11/06 01:37:45;;;;;;;915.75;852.35;;;;;;;7.45;69.59;101400.75;695259;28;46333;-63
2022/11/06 01:38:06;;;;;;;919.60;856.22;;;;;;;7.45;69.61;101406.13;695372;28;23383;-64
2022/11/06 01:38:28;;;;;;;913.95;850.80;;;;;;;7.46;69.49;101399.75;695571;28;23435;-65
2022/11/06 01:38:52;;;;;;;908.50;845.47;;;;;;;7.43;69.79;101400.00;693829;28;44370;-64
2022/11/06 01:39:14;;;;;;;924.25;860.75;;;;;;;7.43;69.46;101403.56;692199;28;114962;-63
2022/11/06 01:39:35;;;;;;;923.42;860.03;;;;;;;7.42;69.61;101404.56;694743;28;45280;-64
2022/11/06 01:39:56;;;;;;;911.33;848.20;;;;;;;7.41;69.75;101408.22;695747;28;22320;-63
2022/11/06 01:40:18;;;;;;;896.13;833.47;;;;;;;7.44;69.76;101407.09;695547;28;22375;-63
2022/11/06 01:40:40;;;;;;;910.72;847.70;;;;;;;7.40;69.43;101398.47;694642;28;44372;-64
2022/11/06 01:41:01;;;;;;;917.25;853.95;;;;;;;7.41;69.53;101408.22;694613;28;46399;-63
2022/11/06 01:41:25;;;;;;;908.10;845.15;;;;;;;7.43;69.64;101405.38;695456;28;23453;-63
2022/11/06 01:41:48;;;;;;;903.50;840.70;;;;;;;7.40;69.61;101402.00;693148;28;92716;-64
2022/11/06 01:42:10;;;;;;;892.10;829.67;;;;;;;7.42;69.52;101399.19;693953;28;67571;-64